Kelso, Missouri
Current Conditions -  °F | °C
As of 2:53 AM on Thursday 29 Jan 2015 (Local Time) from KCGI Reporting Station
Few Clouds Few Clouds  
Wind Chill: 43°   Ceiling: Unl
Heat Index: 48°   Visibility: 10mi
Dew Point: 38°   Wind: 13mph
Humidity: 68%   Direction: 210°SSW
Pressure: 29.9"   Gusts: 21mph
Location:  37.19°N, 89.55°W
Report Text: KCGI 290853Z AUTO 21011G18KT 10SM FEW120 09/03 A2990 RMK AO2 SLP125 T00890033 56023 TSNO
Loading
Personal Weather Stations






























Interactive Weather Map New forecast layout! Learn more

10-Day Weather Forecast

Advertisements
Track Severe Weather on mobile